Terminal Aerodrome Forecast
Issued by NWS

Home | Current Version | Previous Version | Text Only | Print | Product List | Glossary On
Versions: 1 2 3 4 5 6 7 8 9 10 11 12 13
000
FTUS45 KABQ 310500
TAFFMN
TAF
KFMN 310520Z 3106/0106 VRB06KT P6SM SCT250
     FM311000 09007KT P6SM FEW250
     FM311900 25010G18KT P6SM SKC
     FM312200 25015G25KT P6SM FEW110
     FM010200 VRB06KT P6SM SKC=

USA.gov is the U.S. government's official web portal to all federal, state and local government web resources and services.